Aspelt, Luxembourg
Current Conditions -  °F | °C
As of 5:20 PM on Monday 26 Jan 2015 (Local Time) from ELLX Reporting Station
Drizzle Drizzle  
Wind Chill: 29°   Ceiling: 100
Heat Index: 34°   Visibility: 0.18mi
Dew Point: 34°   Wind: 6mph
Humidity: 100%   Direction: 230°SW
Pressure: 30.06"   Gusts: NA
Location:  49.52°N, 6.22°E
Report Text: ELLX 261620Z 23005KT 200V260 0300 R24/0550V0650N -DZ FG SCT000 BKN001 01/01 Q1018 BECMG 0600 FG
Loading
Personal Weather Stations






























Interactive Weather Map New forecast layout! Learn more

10-Day Weather Forecast

Advertisements
Track Severe Weather on mobile